createdAt,value
2023-10-06T00:02:20.407Z,70.21
2023-10-06T00:04:48.786Z,70.13
2023-10-06T00:07:18.275Z,69.96
2023-10-06T00:09:46.454Z,69.94
2023-10-06T00:12:16.960Z,69.81
2023-10-06T00:14:45.209Z,69.83
2023-10-06T00:17:17.461Z,70.08
2023-10-06T00:19:49.070Z,70.44
2023-10-06T00:22:18.730Z,70.39
2023-10-06T00:24:48.947Z,70.73
2023-10-06T00:27:18.770Z,71.07
2023-10-06T00:29:46.943Z,71.05
2023-10-06T00:32:16.425Z,71.08
2023-10-06T00:34:44.645Z,71.64
2023-10-06T00:37:16.858Z,71.73
2023-10-06T00:39:45.265Z,71.87
2023-10-06T00:42:15.269Z,71.79
2023-10-06T00:44:43.427Z,71.65
2023-10-06T00:47:14.965Z,71.75
2023-10-06T00:49:43.347Z,71.65
2023-10-06T00:52:13.853Z,71.85
2023-10-06T00:54:43.558Z,71.70
2023-10-06T00:57:13.460Z,71.91
2023-10-06T00:59:41.836Z,72.28
2023-10-06T01:02:11.652Z,72.10
2023-10-06T01:04:41.063Z,72.29
2023-10-06T01:07:13.619Z,72.62
2023-10-06T01:09:56.213Z,72.58
2023-10-06T01:12:25.853Z,72.79
2023-10-06T01:14:54.165Z,72.78
2023-10-06T01:17:24.714Z,72.96
2023-10-06T01:19:52.977Z,73.23
2023-10-06T01:22:24.615Z,73.51
2023-10-06T01:24:55.486Z,73.93
2023-10-06T01:27:26.087Z,74.17
2023-10-06T01:29:57.650Z,74.67
2023-10-06T01:32:27.223Z,75.27
2023-10-06T01:34:55.598Z,75.68
2023-10-06T01:37:25.169Z,76.10
2023-10-06T01:39:53.407Z,76.98
2023-10-06T01:42:23.939Z,77.29
2023-10-06T01:44:52.166Z,77.64
2023-10-06T01:47:21.735Z,77.79
2023-10-06T01:49:49.971Z,78.17
2023-10-06T01:52:20.546Z,78.25
2023-10-06T01:54:48.850Z,78.42
2023-10-06T01:57:19.359Z,78.35
2023-10-06T01:59:47.554Z,78.42
2023-10-06T02:02:18.195Z,78.64
2023-10-06T02:04:47.235Z,78.82
2023-10-06T02:07:17.836Z,78.73
2023-10-06T02:09:46.022Z,78.87
2023-10-06T02:12:16.526Z,78.69
2023-10-06T02:14:44.774Z,78.65
2023-10-06T02:17:15.351Z,78.43
2023-10-06T02:19:43.677Z,78.73
2023-10-06T02:22:14.206Z,78.79
2023-10-06T02:24:42.491Z,78.73
2023-10-06T02:27:13.063Z,78.93
2023-10-06T02:29:41.314Z,79.18
2023-10-06T02:32:11.910Z,79.37
2023-10-06T02:34:40.736Z,79.75
2023-10-06T02:37:10.501Z,79.96
2023-10-06T02:39:38.750Z,80.18
2023-10-06T02:42:09.348Z,79.99
2023-10-06T02:44:37.613Z,80.53
2023-10-06T02:47:09.261Z,80.69
2023-10-06T02:49:37.788Z,80.65
2023-10-06T02:52:07.610Z,80.65
2023-10-06T02:54:35.934Z,80.72
2023-10-06T02:57:06.428Z,80.88
2023-10-06T02:59:34.805Z,80.73
2023-10-06T03:02:05.630Z,80.80
2023-10-06T03:04:34.090Z,80.89
2023-10-06T03:07:04.221Z,80.69
2023-10-06T03:09:32.501Z,80.87
2023-10-06T03:12:04.238Z,80.78
2023-10-06T03:14:32.479Z,80.63
2023-10-06T03:17:02.055Z,80.51
2023-10-06T03:19:30.322Z,80.52
2023-10-06T03:22:00.843Z,80.68
2023-10-06T03:24:29.043Z,80.90
2023-10-06T03:26:59.620Z,80.81
2023-10-06T03:29:28.244Z,80.94
2023-10-06T03:31:58.812Z,80.73
2023-10-06T03:34:27.056Z,80.65
2023-10-06T03:36:57.677Z,80.71
2023-10-06T03:39:25.887Z,81.05
2023-10-06T03:41:55.576Z,81.15
2023-10-06T03:44:23.885Z,81.11
2023-10-06T03:46:55.040Z,81.17
2023-10-06T03:49:23.478Z,81.26
2023-10-06T03:51:53.002Z,81.26
2023-10-06T03:54:21.300Z,81.20
2023-10-06T03:56:51.813Z,81.32
2023-10-06T03:59:20.166Z,81.33
2023-10-06T04:01:50.780Z,81.56
2023-10-06T04:04:19.060Z,81.35
2023-10-06T04:06:51.001Z,81.68
2023-10-06T04:09:19.250Z,82.18
2023-10-06T04:11:48.732Z,82.27
2023-10-06T04:14:17.028Z,82.53
2023-10-06T04:16:46.608Z,83.00
2023-10-06T04:19:15.116Z,83.31
2023-10-06T04:21:44.049Z,83.33
2023-10-06T04:24:12.253Z,83.62
2023-10-06T04:26:42.820Z,83.61
2023-10-06T04:29:11.153Z,83.62
2023-10-06T04:31:41.083Z,84.00
2023-10-06T04:34:09.364Z,84.00
2023-10-06T04:36:38.887Z,84.40
2023-10-06T04:39:07.194Z,85.08
2023-10-06T04:41:36.779Z,85.40
2023-10-06T04:44:05.451Z,85.54
2023-10-06T04:46:35.072Z,85.73
2023-10-06T04:49:03.558Z,85.49
2023-10-06T04:51:33.070Z,85.68
2023-10-06T04:54:01.493Z,86.10
2023-10-06T04:56:31.048Z,86.13
2023-10-06T04:58:59.536Z,86.23
2023-10-06T05:01:31.279Z,86.43
2023-10-06T05:03:59.636Z,86.71
2023-10-06T05:06:29.508Z,86.54
2023-10-06T05:08:57.752Z,86.53
2023-10-06T05:11:28.266Z,86.41
2023-10-06T05:13:56.599Z,86.25
2023-10-06T05:16:26.269Z,86.56
2023-10-06T05:18:54.638Z,86.30
2023-10-06T05:21:24.205Z,86.73
2023-10-06T05:23:52.418Z,86.34
2023-10-06T05:26:23.317Z,86.58
2023-10-06T05:28:51.689Z,86.30
2023-10-06T05:31:21.377Z,86.20
2023-10-06T05:33:49.631Z,86.20
2023-10-06T05:36:21.708Z,86.38
2023-10-06T05:38:50.160Z,86.39
2023-10-06T05:41:19.707Z,86.36
2023-10-06T05:43:48.014Z,86.74
2023-10-06T05:46:16.780Z,86.64
2023-10-06T05:48:45.013Z,86.89
2023-10-06T05:51:14.689Z,86.78
2023-10-06T05:53:42.958Z,86.72
2023-10-06T05:56:13.879Z,86.61
2023-10-06T05:58:43.245Z,86.62
2023-10-06T06:01:12.973Z,86.45
2023-10-06T06:03:41.313Z,86.44
2023-10-06T06:06:11.580Z,86.30
2023-10-06T06:08:39.826Z,86.20
2023-10-06T06:11:10.485Z,86.30
2023-10-06T06:13:38.781Z,86.27
2023-10-06T06:16:09.390Z,86.29
2023-10-06T06:18:37.704Z,86.14
2023-10-06T06:21:08.209Z,86.14
2023-10-06T06:23:36.624Z,85.96
2023-10-06T06:26:06.264Z,85.95
2023-10-06T06:28:34.645Z,85.84
2023-10-06T06:31:04.289Z,85.92
2023-10-06T06:33:32.578Z,85.64
2023-10-06T06:36:03.320Z,85.60
2023-10-06T06:38:31.567Z,85.44
2023-10-06T06:41:02.115Z,85.29
2023-10-06T06:43:30.381Z,85.25
2023-10-06T06:46:00.936Z,85.38
2023-10-06T06:48:29.240Z,85.28
2023-10-06T06:50:58.817Z,85.24
2023-10-06T06:53:27.081Z,85.05
2023-10-06T06:55:57.869Z,85.16
2023-10-06T06:58:26.128Z,84.89
2023-10-06T07:00:56.691Z,84.77
2023-10-06T07:03:25.406Z,84.79
2023-10-06T07:05:54.986Z,84.68
2023-10-06T07:08:23.343Z,84.90
2023-10-06T07:10:53.016Z,84.82
2023-10-06T07:13:21.438Z,84.53
2023-10-06T07:15:52.126Z,84.51
2023-10-06T07:18:20.624Z,84.27
2023-10-06T07:20:50.326Z,84.31
2023-10-06T07:23:18.618Z,84.17
2023-10-06T07:25:49.174Z,84.24
2023-10-06T07:28:17.392Z,84.18
2023-10-06T07:30:47.989Z,83.96
2023-10-06T07:33:16.300Z,83.66
2023-10-06T07:35:46.801Z,83.47
2023-10-06T07:38:15.307Z,83.19
2023-10-06T07:40:45.274Z,82.97
2023-10-06T07:43:13.533Z,83.19
2023-10-06T07:45:44.313Z,82.91
2023-10-06T07:48:12.553Z,82.66
2023-10-06T07:50:43.119Z,82.39
2023-10-06T07:53:11.365Z,82.07
2023-10-06T07:55:41.020Z,81.78
2023-10-06T07:58:09.495Z,81.34
2023-10-06T08:00:39.198Z,80.92
2023-10-06T08:03:07.453Z,80.49
2023-10-06T08:05:37.521Z,80.24
2023-10-06T08:08:06.214Z,80.41
2023-10-06T08:10:35.843Z,80.43
2023-10-06T08:13:04.249Z,80.49
2023-10-06T08:15:34.467Z,80.67
2023-10-06T08:18:03.137Z,80.85
2023-10-06T08:20:32.905Z,81.21
2023-10-06T08:23:01.357Z,81.42
2023-10-06T08:25:37.468Z,81.43
2023-10-06T08:28:10.182Z,81.57
2023-10-06T08:30:38.456Z,81.91
2023-10-06T08:33:08.095Z,81.79
2023-10-06T08:35:36.793Z,81.88
2023-10-06T08:38:06.312Z,81.80
2023-10-06T08:40:43.013Z,82.18
2023-10-06T08:43:19.824Z,82.07
2023-10-06T08:45:52.586Z,82.03
2023-10-06T08:48:24.182Z,82.16
2023-10-06T08:50:56.130Z,82.54
2023-10-06T08:53:27.149Z,82.85
2023-10-06T08:55:56.824Z,82.97
2023-10-06T08:58:25.202Z,82.93
2023-10-06T09:00:56.477Z,82.96
2023-10-06T09:03:28.222Z,83.50
2023-10-06T09:05:59.063Z,83.72
2023-10-06T09:08:40.431Z,83.60
2023-10-06T09:11:10.667Z,83.42
2023-10-06T09:13:39.438Z,83.07
2023-10-06T09:16:09.032Z,82.77
2023-10-06T09:18:37.583Z,82.50
2023-10-06T09:21:17.211Z,82.13
2023-10-06T09:23:48.859Z,82.28
2023-10-06T09:26:29.628Z,81.73
2023-10-06T09:28:59.258Z,81.32
2023-10-06T09:31:40.275Z,80.53
2023-10-06T09:34:11.070Z,80.06
2023-10-06T09:36:44.773Z,79.82
2023-10-06T09:39:27.743Z,79.41
2023-10-06T09:41:57.966Z,78.81
2023-10-06T09:44:28.342Z,78.66
2023-10-06T09:47:01.684Z,77.85
2023-10-06T09:49:32.539Z,77.29
2023-10-06T09:52:03.705Z,76.83
2023-10-06T09:54:32.560Z,76.18
2023-10-06T09:57:03.955Z,75.46
2023-10-06T09:59:33.816Z,75.24
2023-10-06T10:02:06.527Z,75.06
2023-10-06T10:04:35.524Z,74.93
2023-10-06T10:07:07.264Z,74.60
2023-10-06T10:09:36.837Z,75.09
2023-10-06T10:12:35.848Z,74.87
2023-10-06T10:15:33.353Z,75.22
2023-10-06T10:18:35.852Z,75.55
2023-10-06T10:21:07.439Z,74.75
2023-10-06T10:23:41.346Z,74.31
2023-10-06T10:26:28.492Z,74.26
2023-10-06T10:29:13.257Z,73.37
2023-10-06T10:32:00.105Z,73.66
2023-10-06T10:35:06.507Z,73.54
2023-10-06T10:38:04.311Z,73.93
2023-10-06T10:40:49.506Z,74.10
2023-10-06T10:43:19.180Z,73.73
2023-10-06T10:45:47.944Z,73.47
2023-10-06T10:48:17.603Z,72.31
2023-10-06T10:50:54.942Z,70.15
2023-10-06T10:53:28.904Z,69.75
2023-10-06T10:55:59.144Z,70.08
2023-10-06T10:58:45.458Z,69.94
2023-10-06T11:01:36.027Z,71.04
2023-10-06T11:04:12.164Z,70.68
2023-10-06T11:06:43.640Z,70.29
2023-10-06T11:09:14.750Z,69.93
2023-10-06T11:11:44.373Z,70.11
2023-10-06T11:14:12.878Z,70.14
2023-10-06T11:16:46.485Z,70.30
2023-10-06T11:19:17.898Z,70.39
2023-10-06T11:21:46.870Z,70.69
2023-10-06T11:24:29.117Z,70.73
2023-10-06T11:26:58.658Z,70.87
2023-10-06T11:29:32.960Z,70.78
2023-10-06T11:32:03.800Z,69.98
2023-10-06T11:34:33.156Z,70.13
2023-10-06T11:37:02.987Z,70.22
2023-10-06T11:39:31.556Z,69.96
2023-10-06T11:42:25.902Z,69.77
2023-10-06T11:44:58.279Z,70.08
2023-10-06T11:47:29.465Z,69.72
2023-10-06T11:50:02.270Z,69.49
2023-10-06T11:52:30.866Z,69.19
2023-10-06T11:55:01.069Z,67.81
2023-10-06T11:57:47.362Z,66.69
2023-10-06T12:00:18.045Z,66.18
2023-10-06T12:02:52.956Z,65.38
2023-10-06T12:05:23.266Z,62.89
2023-10-06T12:07:52.355Z,58.75
2023-10-06T12:10:22.160Z,57.28
2023-10-06T12:12:51.032Z,55.38
2023-10-06T12:15:20.699Z,55.04
2023-10-06T12:17:49.038Z,55.39
2023-10-06T12:20:18.853Z,54.93
2023-10-06T12:22:47.609Z,51.10
2023-10-06T12:25:17.553Z,48.85
2023-10-06T12:27:46.219Z,46.09
2023-10-06T12:30:19.482Z,44.01
2023-10-06T12:32:48.111Z,42.75
2023-10-06T12:35:17.798Z,41.37
2023-10-06T12:37:48.423Z,41.80
2023-10-06T12:40:18.078Z,42.25
2023-10-06T12:42:46.479Z,43.77
2023-10-06T12:45:17.023Z,45.36
2023-10-06T12:47:48.252Z,47.76
2023-10-06T12:50:20.435Z,49.29
2023-10-06T12:52:51.786Z,51.19
2023-10-06T12:55:22.367Z,51.26
2023-10-06T12:57:53.103Z,50.81
2023-10-06T13:00:22.884Z,50.69
2023-10-06T13:02:51.354Z,49.28
2023-10-06T13:05:21.410Z,47.83
2023-10-06T13:07:51.407Z,48.19
2023-10-06T13:10:21.669Z,47.24
2023-10-06T13:12:51.979Z,44.59
2023-10-06T13:15:21.570Z,42.99
2023-10-06T13:17:50.373Z,40.78
2023-10-06T13:20:20.062Z,40.03
2023-10-06T13:22:48.434Z,40.42
2023-10-06T13:25:18.157Z,41.22
2023-10-06T13:27:47.311Z,42.75
2023-10-06T13:30:17.623Z,43.27
2023-10-06T13:32:49.798Z,43.92
2023-10-06T13:35:20.871Z,43.49
2023-10-06T13:37:49.625Z,43.33
2023-10-06T13:40:19.297Z,42.85
2023-10-06T13:42:50.112Z,43.34
2023-10-06T13:45:23.467Z,45.45
2023-10-06T13:47:55.188Z,46.54
2023-10-06T13:50:29.271Z,47.05
2023-10-06T13:52:58.139Z,47.93
2023-10-06T13:55:27.740Z,48.42
2023-10-06T13:57:57.075Z,49.09
2023-10-06T14:00:26.645Z,49.50
2023-10-06T14:02:55.209Z,49.70
2023-10-06T14:05:24.873Z,50.03
2023-10-06T14:07:53.068Z,49.71
2023-10-06T14:10:23.760Z,49.83
2023-10-06T14:12:52.109Z,49.15
2023-10-06T14:15:21.768Z,49.49
2023-10-06T14:17:51.004Z,50.20
2023-10-06T14:20:20.565Z,50.97
2023-10-06T14:22:48.874Z,52.15
2023-10-06T14:25:19.627Z,53.05
2023-10-06T14:27:50.747Z,54.41
2023-10-06T14:30:20.353Z,55.46
2023-10-06T14:32:50.112Z,56.29
2023-10-06T14:35:18.861Z,56.72
2023-10-06T14:37:48.513Z,57.14
2023-10-06T14:40:18.033Z,57.13
2023-10-06T14:42:46.290Z,57.02
2023-10-06T14:45:16.838Z,56.34
2023-10-06T14:47:45.058Z,56.34
2023-10-06T14:50:15.648Z,55.59
2023-10-06T14:52:44.068Z,54.20
2023-10-06T14:55:13.655Z,52.82
2023-10-06T14:57:42.219Z,51.41
2023-10-06T15:00:12.383Z,50.38
2023-10-06T15:02:40.709Z,51.03
2023-10-06T15:05:10.361Z,51.75
2023-10-06T15:07:38.774Z,52.57
2023-10-06T15:10:10.006Z,53.25
2023-10-06T15:12:38.308Z,54.13
2023-10-06T15:15:08.697Z,55.19
2023-10-06T15:17:36.999Z,55.64
2023-10-06T15:20:08.869Z,55.75
2023-10-06T15:22:37.184Z,55.70
2023-10-06T15:25:07.450Z,55.57
2023-10-06T15:27:35.722Z,54.99
2023-10-06T15:30:07.052Z,54.88
2023-10-06T15:32:35.413Z,54.12
2023-10-06T15:35:05.096Z,54.58
2023-10-06T15:37:33.368Z,55.36
2023-10-06T15:40:04.920Z,55.96
2023-10-06T15:42:42.209Z,56.57
2023-10-06T15:45:11.813Z,57.46
2023-10-06T15:47:40.196Z,58.18
2023-10-06T15:50:22.501Z,58.75
2023-10-06T15:52:51.740Z,59.46
2023-10-06T15:55:20.011Z,59.77
2023-10-06T15:57:49.602Z,60.39
2023-10-06T16:00:17.861Z,60.87
2023-10-06T16:02:48.458Z,61.39
2023-10-06T16:05:17.115Z,61.48
2023-10-06T16:07:46.679Z,61.66
2023-10-06T16:10:15.081Z,61.76
2023-10-06T16:12:44.783Z,61.96
2023-10-06T16:15:13.067Z,62.36
2023-10-06T16:17:43.842Z,62.68
2023-10-06T16:20:12.423Z,62.97
2023-10-06T16:22:41.941Z,63.39
2023-10-06T16:25:10.287Z,63.67
2023-10-06T16:27:40.860Z,64.41
2023-10-06T16:30:09.358Z,64.55
2023-10-06T16:32:38.932Z,65.06
2023-10-06T16:35:09.593Z,65.33
2023-10-06T16:37:39.606Z,65.40
2023-10-06T16:40:08.906Z,65.66
2023-10-06T16:42:38.418Z,66.02
2023-10-06T16:45:08.751Z,66.11
2023-10-06T16:47:38.914Z,66.14
2023-10-06T16:50:08.709Z,66.27
2023-10-06T16:52:38.373Z,66.43
2023-10-06T16:55:07.428Z,66.53
2023-10-06T16:57:36.943Z,66.70
2023-10-06T17:00:06.339Z,67.00
2023-10-06T17:02:36.778Z,67.18
2023-10-06T17:05:06.227Z,67.39
2023-10-06T17:07:35.816Z,67.65
2023-10-06T17:10:06.535Z,67.71
2023-10-06T17:12:42.750Z,67.81
2023-10-06T17:15:12.544Z,67.95
2023-10-06T17:17:43.089Z,68.16
2023-10-06T17:20:14.322Z,68.48
2023-10-06T17:22:43.538Z,68.62
2023-10-06T17:25:13.841Z,68.85
2023-10-06T17:27:44.381Z,68.68
2023-10-06T17:30:16.328Z,68.76
2023-10-06T17:32:48.101Z,68.56
2023-10-06T17:35:18.390Z,68.45
2023-10-06T17:37:46.949Z,68.44
2023-10-06T17:40:17.168Z,68.52
2023-10-06T17:42:45.362Z,68.51
2023-10-06T17:45:16.919Z,68.69
2023-10-06T17:47:45.487Z,68.86
2023-10-06T17:50:15.247Z,69.02
2023-10-06T17:52:43.552Z,69.04
2023-10-06T17:55:14.125Z,68.80
2023-10-06T17:57:42.373Z,68.82
2023-10-06T18:00:13.672Z,68.88
2023-10-06T18:02:42.172Z,68.91
2023-10-06T18:05:11.941Z,68.81
2023-10-06T18:07:40.254Z,68.61
2023-10-06T18:10:11.936Z,68.59
2023-10-06T18:12:40.263Z,68.32
2023-10-06T18:15:10.256Z,68.56
2023-10-06T18:17:38.624Z,68.82
2023-10-06T18:20:08.900Z,69.01
2023-10-06T18:22:37.412Z,69.00
2023-10-06T18:25:07.548Z,68.84
2023-10-06T18:27:35.771Z,68.80
2023-10-06T18:30:07.403Z,68.82
2023-10-06T18:32:35.616Z,68.83
2023-10-06T18:35:05.793Z,69.00
2023-10-06T18:37:34.093Z,69.09
2023-10-06T18:40:05.237Z,69.26
2023-10-06T18:42:33.620Z,69.10
2023-10-06T18:45:03.501Z,68.50
2023-10-06T18:47:31.912Z,68.66
2023-10-06T18:50:01.478Z,68.38
2023-10-06T18:52:29.768Z,68.49
2023-10-06T18:55:00.332Z,67.76
2023-10-06T18:57:28.627Z,67.63
2023-10-06T18:59:59.140Z,67.54
2023-10-06T19:02:27.528Z,67.67
2023-10-06T19:04:57.196Z,67.77
2023-10-06T19:07:25.480Z,67.75
2023-10-06T19:09:56.024Z,67.96
2023-10-06T19:12:24.265Z,67.97
2023-10-06T19:14:54.804Z,67.90
2023-10-06T19:17:24.146Z,67.85
2023-10-06T19:19:53.978Z,68.00
2023-10-06T19:22:22.329Z,67.92
2023-10-06T19:24:52.861Z,67.78
2023-10-06T19:27:21.110Z,67.81
2023-10-06T19:29:50.787Z,67.67
2023-10-06T19:32:19.048Z,67.60
2023-10-06T19:34:48.717Z,67.67
2023-10-06T19:37:16.988Z,67.78
2023-10-06T19:39:47.697Z,67.95
2023-10-06T19:42:16.053Z,67.58
2023-10-06T19:44:46.592Z,67.75
2023-10-06T19:47:14.937Z,67.83
2023-10-06T19:49:44.594Z,67.88
2023-10-06T19:52:12.851Z,67.82
2023-10-06T19:54:43.345Z,67.76
2023-10-06T19:57:11.626Z,67.66
2023-10-06T19:59:42.935Z,67.76
2023-10-06T20:02:11.235Z,67.80
2023-10-06T20:04:40.865Z,67.69
2023-10-06T20:07:10.106Z,67.78
2023-10-06T20:09:39.670Z,67.63
2023-10-06T20:12:07.949Z,67.17
2023-10-06T20:14:38.464Z,67.00
2023-10-06T20:17:06.740Z,67.19
2023-10-06T20:19:36.481Z,67.41
2023-10-06T20:22:04.746Z,67.51
2023-10-06T20:24:35.267Z,67.45
2023-10-06T20:27:03.527Z,67.46
2023-10-06T20:29:34.084Z,67.35
2023-10-06T20:32:02.396Z,66.68
2023-10-06T20:34:32.030Z,66.69
2023-10-06T20:37:00.380Z,66.85
2023-10-06T20:39:30.918Z,67.12
2023-10-06T20:41:59.142Z,67.09
2023-10-06T20:44:29.699Z,67.32
2023-10-06T20:46:58.055Z,67.30
2023-10-06T20:49:27.715Z,67.11
2023-10-06T20:51:56.062Z,66.98
2023-10-06T20:54:26.618Z,66.77
2023-10-06T20:56:54.843Z,66.97
2023-10-06T20:59:25.421Z,67.08
2023-10-06T21:01:53.733Z,66.90
2023-10-06T21:04:23.397Z,67.28
2023-10-06T21:06:51.712Z,67.34
2023-10-06T21:09:22.459Z,67.05
2023-10-06T21:11:51.618Z,66.98
2023-10-06T21:14:21.352Z,66.60
2023-10-06T21:16:49.944Z,66.55
2023-10-06T21:19:19.767Z,66.58
2023-10-06T21:21:48.083Z,66.65
2023-10-06T21:24:18.601Z,66.94
2023-10-06T21:26:46.875Z,67.08
2023-10-06T21:29:17.540Z,66.93
2023-10-06T21:31:45.836Z,66.87
2023-10-06T21:34:15.647Z,67.05
2023-10-06T21:36:43.887Z,66.79
2023-10-06T21:39:14.466Z,66.81
2023-10-06T21:41:42.807Z,67.08
2023-10-06T21:44:13.342Z,66.89
2023-10-06T21:46:41.637Z,66.41
2023-10-06T21:49:11.457Z,66.10
2023-10-06T21:51:41.290Z,65.81
2023-10-06T21:54:11.748Z,65.60
2023-10-06T21:56:40.233Z,65.38
2023-10-06T21:59:09.912Z,65.02
2023-10-06T22:01:38.267Z,65.18
2023-10-06T22:04:07.995Z,65.40
2023-10-06T22:06:36.369Z,65.55
2023-10-06T22:09:06.925Z,65.43
2023-10-06T22:11:35.201Z,65.72
2023-10-06T22:14:05.031Z,65.84
2023-10-06T22:16:33.412Z,66.05
2023-10-06T22:19:03.077Z,66.32
2023-10-06T22:21:31.465Z,66.29
2023-10-06T22:24:01.143Z,66.01
2023-10-06T22:26:31.124Z,66.27
2023-10-06T22:29:01.881Z,66.30
2023-10-06T22:31:30.488Z,65.54
2023-10-06T22:34:00.377Z,65.32
2023-10-06T22:36:28.638Z,65.63
2023-10-06T22:38:59.173Z,65.78
2023-10-06T22:41:27.447Z,65.82
2023-10-06T22:43:58.058Z,65.98
2023-10-06T22:46:26.429Z,66.19
2023-10-06T22:48:56.060Z,66.39
2023-10-06T22:51:24.378Z,66.58
2023-10-06T22:53:53.950Z,66.54
2023-10-06T22:56:22.249Z,66.40
2023-10-06T22:58:53.049Z,66.66
2023-10-06T23:01:21.592Z,66.51
2023-10-06T23:03:51.518Z,66.44
2023-10-06T23:06:19.828Z,66.30
2023-10-06T23:08:49.819Z,66.57
2023-10-06T23:11:18.097Z,66.80
2023-10-06T23:13:49.513Z,67.08
2023-10-06T23:16:18.042Z,66.88
2023-10-06T23:18:47.689Z,66.87
2023-10-06T23:21:16.145Z,66.98
2023-10-06T23:23:45.770Z,66.99
2023-10-06T23:26:14.027Z,66.97
2023-10-06T23:28:43.644Z,66.89
2023-10-06T23:31:11.893Z,66.81
2023-10-06T23:33:41.661Z,67.40
2023-10-06T23:36:10.012Z,67.52
2023-10-06T23:38:39.653Z,67.36
2023-10-06T23:41:07.884Z,67.34
2023-10-06T23:43:39.233Z,67.40
2023-10-06T23:46:07.642Z,67.41
2023-10-06T23:48:37.251Z,67.54
2023-10-06T23:51:05.516Z,67.63
2023-10-06T23:53:36.016Z,67.55
2023-10-06T23:56:04.473Z,67.84
2023-10-06T23:58:34.946Z,67.93
